Time;durP1;ratioP1;P1;durP2;ratioP2;P2;SDS_P1;SDS_P2;PMS_P1;PMS_P2;Temp;Humidity;BMP_temperature;BMP_pressure;BME280_temperature;BME280_humidity;BME280_pressure;Samples;Min_cycle;Max_cycle;Signal;HPM_P1;HPM_P2
2023/03/16 00:00:15;;;;;;;8.18;2.85;;;8.30;54.30;;;;;;5091525;28;20395;-62
2023/03/16 00:02:41;;;;;;;6.20;2.95;;;8.30;54.30;;;;;;5089306;28;20425;-62
2023/03/16 00:05:08;;;;;;;6.38;2.50;;;8.30;54.40;;;;;;5076811;28;20103;-62
2023/03/16 00:07:35;;;;;;;5.72;2.90;;;8.30;54.40;;;;;;5081500;28;20089;-62
2023/03/16 00:10:01;;;;;;;6.53;2.83;;;8.30;54.40;;;;;;5079615;28;20092;-62
2023/03/16 00:12:26;;;;;;;5.25;2.63;;;8.30;54.60;;;;;;5097813;28;20303;-62
2023/03/16 00:14:53;;;;;;;6.18;2.63;;;8.30;54.60;;;;;;5096668;28;20110;-63
2023/03/16 00:17:20;;;;;;;5.70;2.53;;;8.30;54.60;;;;;;5094918;28;20035;-62
2023/03/16 00:19:53;;;;;;;5.97;2.60;;;8.30;54.70;;;;;;5094819;28;20048;-62
2023/03/16 00:22:21;;;;;;;5.22;2.03;;;8.30;54.70;;;;;;5096348;28;20381;-62
2023/03/16 00:24:47;;;;;;;4.82;2.50;;;8.30;54.70;;;;;;5095442;28;20020;-62
2023/03/16 00:27:16;;;;;;;5.63;2.50;;;8.30;54.70;;;;;;5095034;28;20165;-62
2023/03/16 00:29:46;;;;;;;5.97;2.33;;;8.30;54.70;;;;;;5090270;28;20038;-62
2023/03/16 00:32:16;;;;;;;8.07;2.60;;;8.30;54.70;;;;;;5091044;28;20107;-62
2023/03/16 00:34:44;;;;;;;5.60;2.78;;;8.30;54.70;;;;;;5083355;28;20029;-62
2023/03/16 00:37:12;;;;;;;6.15;2.70;;;8.30;54.70;;;;;;5095393;28;20060;-62
2023/03/16 00:39:43;;;;;;;4.85;2.47;;;8.30;54.70;;;;;;5091154;28;20425;-62
2023/03/16 00:42:13;;;;;;;7.30;2.97;;;8.30;54.70;;;;;;5096313;28;20103;-62
2023/03/16 00:44:43;;;;;;;7.22;2.47;;;8.30;54.70;;;;;;5095676;28;20022;-62
2023/03/16 00:47:13;;;;;;;6.25;2.78;;;8.30;54.70;;;;;;5099524;28;20035;-62
2023/03/16 00:49:41;;;;;;;5.82;2.78;;;8.30;54.90;;;;;;5094489;28;20455;-62
2023/03/16 00:52:13;;;;;;;6.60;2.75;;;8.30;54.90;;;;;;5096043;28;20038;-62
2023/03/16 00:54:41;;;;;;;6.40;2.47;;;8.30;55.00;;;;;;5094615;28;20107;-62
2023/03/16 00:57:08;;;;;;;7.07;2.70;;;8.20;54.90;;;;;;5105990;28;20107;-62
2023/03/16 00:59:36;;;;;;;6.47;2.72;;;8.30;55.00;;;;;;5095562;28;20118;-62
2023/03/16 01:02:04;;;;;;;8.20;2.58;;;8.30;55.00;;;;;;5098119;28;20130;-62
2023/03/16 01:04:31;;;;;;;10.48;3.08;;;8.20;55.10;;;;;;5091142;28;20032;-62
2023/03/16 01:06:57;;;;;;;6.53;3.03;;;8.30;55.20;;;;;;5103102;28;20140;-63
2023/03/16 01:09:23;;;;;;;7.03;2.85;;;8.30;55.30;;;;;;5094540;28;20501;-62
2023/03/16 01:11:53;;;;;;;7.47;2.75;;;8.30;55.40;;;;;;5104058;28;20055;-62
2023/03/16 01:14:20;;;;;;;6.25;2.60;;;8.30;55.50;;;;;;5078712;28;20416;-63
2023/03/16 01:16:45;;;;;;;6.43;2.72;;;8.30;55.60;;;;;;5094393;28;20020;-63
2023/03/16 01:19:12;;;;;;;6.45;2.63;;;8.20;55.60;;;;;;5091238;28;20134;-62
2023/03/16 01:21:39;;;;;;;6.32;2.78;;;8.30;55.80;;;;;;5071089;28;20024;-63
2023/03/16 01:24:05;;;;;;;6.05;2.65;;;8.20;55.80;;;;;;5082354;28;20035;-62
2023/03/16 01:26:31;;;;;;;6.63;2.55;;;8.20;55.90;;;;;;5100088;28;20096;-62
2023/03/16 01:28:57;;;;;;;5.40;2.85;;;8.20;55.90;;;;;;5101036;28;20077;-62
2023/03/16 01:31:22;;;;;;;5.75;2.90;;;8.20;56.60;;;;;;5105782;28;20034;-62
2023/03/16 01:33:48;;;;;;;6.45;2.67;;;8.20;56.10;;;;;;5102953;28;20360;-62
2023/03/16 01:36:19;;;;;;;6.13;2.60;;;8.20;56.00;;;;;;5094055;28;20020;-62
2023/03/16 01:39:05;;;;;;;5.53;2.50;;;8.20;56.10;;;;;;5094037;28;20377;-62
2023/03/16 01:41:36;;;;;;;5.68;2.83;;;8.20;56.10;;;;;;5080872;28;20028;-62
2023/03/16 01:44:02;;;;;;;6.60;2.80;;;8.20;56.10;;;;;;5094817;28;20024;-62
2023/03/16 01:46:29;;;;;;;7.43;2.60;;;8.20;56.20;;;;;;5078134;28;20070;-62
2023/03/16 01:49:05;;;;;;;6.05;2.25;;;8.20;56.20;;;;;;5092229;28;20111;-62
2023/03/16 01:51:30;;;;;;;7.20;3.10;;;8.20;56.30;;;;;;5085506;28;20027;-62
2023/03/16 01:54:21;;;;;;;6.57;2.47;;;8.20;56.30;;;;;;5093396;28;20027;-62
2023/03/16 01:57:07;;;;;;;8.02;3.13;;;8.20;56.40;;;;;;5093275;28;20036;-62
2023/03/16 01:59:41;;;;;;;6.55;3.20;;;8.20;56.40;;;;;;5093184;28;20132;-62
2023/03/16 02:02:10;;;;;;;6.10;2.75;;;8.20;56.50;;;;;;5087637;28;20031;-62
2023/03/16 02:05:00;;;;;;;7.00;3.03;;;8.10;56.50;;;;;;5097630;28;20084;-62
2023/03/16 02:07:29;;;;;;;7.22;2.53;;;8.10;56.50;;;;;;5068309;28;20024;-62
2023/03/16 02:09:59;;;;;;;7.43;2.60;;;8.10;56.60;;;;;;5092136;28;20044;-62
2023/03/16 02:12:26;;;;;;;5.70;2.67;;;8.10;56.60;;;;;;5088426;28;20032;-62
2023/03/16 02:14:54;;;;;;;6.72;2.42;;;8.10;56.70;;;;;;5091796;28;20047;-62
2023/03/16 02:17:24;;;;;;;6.57;3.03;;;8.10;56.80;;;;;;5092925;28;20367;-62
2023/03/16 02:20:31;;;;;;;5.22;2.50;;;8.10;56.80;;;;;;5104190;28;20314;-62
2023/03/16 02:22:57;;;;;;;6.25;2.83;;;8.10;56.90;;;;;;5086131;28;20116;-62
2023/03/16 02:25:38;;;;;;;7.20;2.85;;;8.10;56.90;;;;;;5092989;28;20031;-62
2023/03/16 02:28:11;;;;;;;6.93;3.10;;;8.10;57.00;;;;;;5095675;28;20027;-63
2023/03/16 02:30:41;;;;;;;7.70;3.28;;;8.10;57.00;;;;;;5093253;28;20024;-62
2023/03/16 02:33:07;;;;;;;9.10;3.72;;;8.10;57.10;;;;;;5091995;28;20030;-62
2023/03/16 02:35:33;;;;;;;6.70;2.92;;;8.10;57.20;;;;;;5092770;28;20024;-62
2023/03/16 02:38:00;;;;;;;7.15;3.03;;;8.10;57.20;;;;;;5096567;28;20062;-62
2023/03/16 02:40:33;;;;;;;6.30;3.20;;;8.10;57.30;;;;;;5099198;28;20028;-62
2023/03/16 02:43:23;;;;;;;7.43;3.20;;;8.10;57.30;;;;;;5087397;28;20115;-62
2023/03/16 02:46:03;;;;;;;7.57;3.22;;;8.00;57.40;;;;;;5092719;28;20024;-62
2023/03/16 02:48:41;;;;;;;7.22;2.97;;;8.00;57.40;;;;;;5077238;28;20024;-62
2023/03/16 02:51:08;;;;;;;5.90;3.05;;;8.00;57.40;;;;;;5079850;28;20368;-62
2023/03/16 02:53:34;;;;;;;5.70;2.80;;;8.00;57.40;;;;;;5100574;28;20510;-62
2023/03/16 02:56:01;;;;;;;7.05;2.85;;;8.00;57.40;;;;;;5096561;28;20024;-62
2023/03/16 02:58:30;;;;;;;9.02;3.60;;;8.00;57.50;;;;;;5091749;28;20063;-62
2023/03/16 03:00:57;;;;;;;7.30;3.20;;;8.00;57.50;;;;;;5079423;28;20017;-62
2023/03/16 03:03:23;;;;;;;8.00;3.70;;;8.00;57.60;;;;;;5082894;28;20353;-62
2023/03/16 03:05:48;;;;;;;7.15;3.28;;;8.00;57.60;;;;;;5088540;28;20024;-62
2023/03/16 03:08:15;;;;;;;6.82;3.30;;;8.00;57.70;;;;;;5101121;28;20360;-63
2023/03/16 03:10:41;;;;;;;8.55;3.10;;;8.00;57.70;;;;;;5100228;28;20099;-62
2023/03/16 03:13:08;;;;;;;7.20;3.00;;;8.00;57.70;;;;;;5086022;28;20047;-62
2023/03/16 03:15:34;;;;;;;9.07;2.90;;;8.00;57.90;;;;;;5094571;28;20059;-62
2023/03/16 03:18:05;;;;;;;;;;;8.00;57.90;;;;;;5088605;28;20023;-62
2023/03/16 03:20:31;;;;;;;6.05;2.83;;;8.00;57.90;;;;;;5112617;28;20010;-62
2023/03/16 03:22:57;;;;;;;7.60;3.30;;;7.90;57.90;;;;;;5094133;28;20019;-62
2023/03/16 03:25:23;;;;;;;6.60;3.13;;;7.90;57.90;;;;;;5103972;28;20384;-62
2023/03/16 03:27:53;;;;;;;6.47;3.00;;;8.00;58.00;;;;;;5101526;28;20020;-63
2023/03/16 03:30:23;;;;;;;5.32;2.75;;;8.00;58.00;;;;;;5099745;28;20028;-62
2023/03/16 03:32:51;;;;;;;7.40;3.13;;;8.00;58.10;;;;;;5093410;28;20372;-62
2023/03/16 03:35:18;;;;;;;7.97;2.90;;;8.00;58.10;;;;;;5090023;28;20371;-62
2023/03/16 03:37:44;;;;;;;7.63;3.25;;;8.00;58.20;;;;;;5105228;28;20035;-62
2023/03/16 03:40:14;;;;;;;7.18;3.28;;;7.90;58.20;;;;;;5109977;28;20028;-62
2023/03/16 03:42:41;;;;;;;6.70;2.70;;;8.00;58.30;;;;;;5095352;28;20047;-62
2023/03/16 03:45:11;;;;;;;6.53;3.05;;;8.00;58.40;;;;;;5108337;28;20087;-62
2023/03/16 03:47:38;;;;;;;6.95;2.85;;;8.00;58.40;;;;;;5095777;28;20030;-62
2023/03/16 03:50:05;;;;;;;7.82;2.80;;;8.00;58.40;;;;;;5108324;28;20368;-63
2023/03/16 03:52:36;;;;;;;5.72;2.90;;;8.00;58.50;;;;;;5084238;28;20036;-62
2023/03/16 03:55:03;;;;;;;7.53;3.30;;;8.00;58.60;;;;;;5094937;28;20020;-62
2023/03/16 03:57:29;;;;;;;6.53;3.13;;;8.00;59.20;;;;;;5096553;28;20398;-62
2023/03/16 03:59:55;;;;;;;6.55;3.30;;;8.00;58.70;;;;;;5108573;28;20024;-62
2023/03/16 04:02:39;;;;;;;7.20;3.22;;;8.00;58.80;;;;;;5095120;28;20119;-62
2023/03/16 04:05:08;;;;;;;6.72;3.35;;;7.90;58.70;;;;;;5105888;28;20020;-62
2023/03/16 04:07:34;;;;;;;7.53;2.95;;;7.90;58.80;;;;;;5088228;28;20025;-62
2023/03/16 04:10:05;;;;;;;6.18;2.80;;;7.90;58.90;;;;;;5091496;28;20031;-62
2023/03/16 04:12:38;;;;;;;9.63;3.17;;;7.90;58.90;;;;;;5084007;28;20047;-63
2023/03/16 04:15:06;;;;;;;5.68;3.05;;;7.90;59.10;;;;;;5095363;28;20115;-62
2023/03/16 04:17:39;;;;;;;6.35;2.97;;;7.90;59.10;;;;;;5095102;28;20032;-62
2023/03/16 04:20:14;;;;;;;8.75;3.28;;;7.80;59.20;;;;;;5095075;28;20077;-62
2023/03/16 04:22:41;;;;;;;7.35;3.40;;;7.80;59.30;;;;;;5091935;28;20024;-62
2023/03/16 04:25:14;;;;;;;6.00;3.15;;;7.80;59.50;;;;;;5083620;28;20514;-62
2023/03/16 04:27:41;;;;;;;7.57;3.00;;;7.80;59.60;;;;;;5094334;28;20038;-62
2023/03/16 04:30:12;;;;;;;7.20;3.33;;;7.80;59.60;;;;;;5097062;28;20036;-62
2023/03/16 04:32:41;;;;;;;6.35;2.80;;;7.80;59.70;;;;;;5095245;28;20309;-62
2023/03/16 04:35:09;;;;;;;5.57;2.78;;;7.80;59.70;;;;;;5087818;28;20036;-62
2023/03/16 04:37:43;;;;;;;7.57;3.40;;;7.80;59.80;;;;;;5091197;28;20123;-62
2023/03/16 04:40:15;;;;;;;8.70;3.25;;;7.80;59.80;;;;;;5092095;28;20421;-62
2023/03/16 04:42:44;;;;;;;7.05;2.95;;;7.80;59.80;;;;;;5101156;28;20042;-62
2023/03/16 04:45:16;;;;;;;6.22;3.00;;;7.80;59.90;;;;;;5091481;28;20434;-62
2023/03/16 04:47:42;;;;;;;7.18;3.35;;;7.70;60.00;;;;;;5091402;28;20107;-62
2023/03/16 04:50:09;;;;;;;9.13;3.38;;;7.70;60.00;;;;;;5093359;28;20107;-62
2023/03/16 04:52:36;;;;;;;7.40;3.20;;;7.70;60.10;;;;;;5072415;28;20512;-62
2023/03/16 04:55:02;;;;;;;6.07;2.95;;;7.70;60.20;;;;;;5092301;28;20104;-62
2023/03/16 04:57:29;;;;;;;8.00;3.35;;;7.70;60.20;;;;;;5093932;28;20369;-62
2023/03/16 04:59:55;;;;;;;8.23;3.63;;;7.70;60.30;;;;;;5092066;28;20016;-62
2023/03/16 05:02:31;;;;;;;6.82;3.10;;;7.60;60.30;;;;;;5077956;28;20103;-62
2023/03/16 05:04:59;;;;;;;9.13;3.58;;;7.60;60.30;;;;;;5099740;28;20044;-62
2023/03/16 05:07:25;;;;;;;6.95;3.35;;;7.60;60.30;;;;;;5086909;28;20048;-62
2023/03/16 05:09:53;;;;;;;6.97;3.60;;;7.60;60.40;;;;;;5075360;28;20038;-62
2023/03/16 05:12:20;;;;;;;6.70;3.22;;;7.60;60.40;;;;;;5076960;28;20082;-62
2023/03/16 05:14:48;;;;;;;6.07;2.88;;;7.60;60.40;;;;;;5091827;28;20047;-62
2023/03/16 05:17:41;;;;;;;7.05;3.17;;;7.60;60.40;;;;;;5087261;28;20439;-62
2023/03/16 05:20:11;;;;;;;7.15;3.15;;;7.60;60.40;;;;;;5091421;28;20020;-63
2023/03/16 05:22:44;;;;;;;6.53;2.97;;;7.60;60.40;;;;;;5092140;28;20506;-62
2023/03/16 05:25:19;;;;;;;7.07;3.28;;;7.60;60.40;;;;;;5107131;28;20020;-62
2023/03/16 05:27:50;;;;;;;6.90;3.25;;;7.60;60.40;;;;;;5090446;28;20499;-62
2023/03/16 05:30:25;;;;;;;6.75;3.22;;;7.60;61.10;;;;;;5105460;28;20159;-62
2023/03/16 05:32:53;;;;;;;5.93;3.00;;;7.50;60.50;;;;;;5101424;28;20465;-62
2023/03/16 05:35:19;;;;;;;6.88;3.10;;;7.50;60.60;;;;;;5090625;28;20032;-62
2023/03/16 05:37:45;;;;;;;6.47;2.65;;;7.60;60.70;;;;;;5079006;28;20028;-62
2023/03/16 05:40:21;;;;;;;7.35;3.35;;;7.50;60.70;;;;;;5105282;28;20015;-61
2023/03/16 05:42:55;;;;;;;6.15;3.03;;;7.50;60.70;;;;;;5095753;28;20016;-66
2023/03/16 05:45:22;;;;;;;7.63;3.40;;;7.50;60.80;;;;;;5096096;28;20059;-63
2023/03/16 05:48:04;;;;;;;6.10;2.90;;;7.50;60.80;;;;;;5083188;28;20421;-62
2023/03/16 05:50:31;;;;;;;8.25;3.00;;;7.50;60.80;;;;;;5092777;28;20032;-61
2023/03/16 05:52:57;;;;;;;6.57;3.20;;;7.50;60.80;;;;;;5093078;28;20072;-61
2023/03/16 05:55:23;;;;;;;6.85;3.15;;;7.50;60.80;;;;;;5080630;28;20148;-62
2023/03/16 05:57:54;;;;;;;7.85;3.47;;;7.50;60.80;;;;;;5092578;28;20036;-62
2023/03/16 06:00:21;;;;;;;8.48;3.25;;;7.50;60.90;;;;;;5094047;28;20464;-62
2023/03/16 06:02:56;;;;;;;8.80;3.60;;;7.50;61.00;;;;;;5093680;28;20417;-63
2023/03/16 06:05:27;;;;;;;7.70;3.50;;;7.50;61.20;;;;;;5096886;28;20028;-63
2023/03/16 06:07:53;;;;;;;7.97;3.40;;;7.50;61.30;;;;;;5082484;28;20412;-63
2023/03/16 06:10:19;;;;;;;6.90;3.60;;;7.50;61.30;;;;;;5075709;28;20127;-63
2023/03/16 06:12:45;;;;;;;6.22;3.08;;;7.50;61.40;;;;;;5092728;28;20459;-64
2023/03/16 06:15:12;;;;;;;8.70;3.20;;;7.50;61.50;;;;;;5086472;28;20101;-62
2023/03/16 06:17:40;;;;;;;6.15;3.28;;;7.60;61.60;;;;;;5095459;28;20039;-63
2023/03/16 06:20:10;;;;;;;7.43;3.00;;;7.60;61.60;;;;;;5074507;28;20024;-63
2023/03/16 06:22:39;;;;;;;7.45;2.90;;;7.60;61.70;;;;;;5073234;28;20339;-63
2023/03/16 06:25:06;;;;;;;7.90;3.08;;;7.60;61.80;;;;;;5084546;28;20024;-63
2023/03/16 06:27:32;;;;;;;7.32;2.95;;;7.60;61.80;;;;;;5074481;28;20043;-63
2023/03/16 06:30:24;;;;;;;6.85;3.08;;;7.60;62.00;;;;;;5089447;28;20024;-63
2023/03/16 06:32:50;;;;;;;6.53;3.08;;;7.60;62.20;;;;;;5095695;28;20030;-63
2023/03/16 06:35:17;;;;;;;6.63;3.20;;;7.60;61.80;;;;;;5103412;28;20016;-62
2023/03/16 06:37:52;;;;;;;6.65;3.00;;;7.60;62.40;;;;;;5062832;28;20042;-62
2023/03/16 06:40:38;;;;;;;9.63;3.40;;;7.60;62.50;;;;;;5094402;28;20119;-62
2023/03/16 06:43:05;;;;;;;6.20;3.15;;;7.60;62.50;;;;;;5090305;28;20020;-62
2023/03/16 06:45:31;;;;;;;6.95;3.45;;;7.60;62.70;;;;;;5091097;28;20073;-63
2023/03/16 06:47:57;;;;;;;7.47;3.28;;;7.60;62.70;;;;;;5089744;28;20032;-62
2023/03/16 06:50:23;;;;;;;6.40;2.95;;;7.60;62.80;;;;;;5087417;28;20286;-62
2023/03/16 06:52:48;;;;;;;6.03;3.10;;;7.60;62.80;;;;;;5092525;28;20092;-63
2023/03/16 06:55:14;;;;;;;5.70;2.65;;;7.60;63.50;;;;;;5100424;28;20020;-62
2023/03/16 06:57:44;;;;;;;7.40;3.45;;;7.60;62.90;;;;;;5078816;28;20353;-63
2023/03/16 07:00:14;;;;;;;6.78;2.90;;;7.60;63.00;;;;;;5087720;28;20468;-63
2023/03/16 07:02:41;;;;;;;6.18;3.15;;;7.60;63.10;;;;;;5092692;28;20020;-62
2023/03/16 07:05:11;;;;;;;5.45;2.80;;;7.70;63.20;;;;;;5095623;28;20061;-63
2023/03/16 07:07:41;;;;;;;5.80;2.90;;;7.70;63.20;;;;;;5093821;28;20028;-62
2023/03/16 07:10:12;;;;;;;7.43;3.53;;;7.70;63.30;;;;;;5096462;28;20470;-62
2023/03/16 07:12:38;;;;;;;7.23;3.23;;;7.70;63.40;;;;;;5096700;28;20464;-62
2023/03/16 07:15:04;;;;;;;6.80;3.28;;;7.70;63.50;;;;;;5087382;28;20077;-63
2023/03/16 07:17:31;;;;;;;6.45;3.00;;;7.70;63.70;;;;;;5093255;28;20039;-62
2023/03/16 07:19:57;;;;;;;8.05;3.50;;;7.70;63.80;;;;;;5091692;28;20020;-62
2023/03/16 07:22:23;;;;;;;7.15;3.20;;;7.70;63.90;;;;;;5097607;28;20081;-63
2023/03/16 07:24:55;;;;;;;8.55;3.58;;;7.80;64.00;;;;;;5097840;28;20016;-63
2023/03/16 07:27:23;;;;;;;7.72;3.83;;;7.80;64.10;;;;;;5098105;28;20039;-63
2023/03/16 07:29:51;;;;;;;7.13;2.65;;;7.80;64.30;;;;;;5105022;28;20047;-63
2023/03/16 07:32:18;;;;;;;7.50;3.13;;;7.80;64.30;;;;;;5092285;28;20115;-63
2023/03/16 07:34:45;;;;;;;7.40;3.80;;;7.90;64.40;;;;;;5092028;28;20020;-63
2023/03/16 07:37:12;;;;;;;6.90;3.63;;;7.90;64.30;;;;;;5076886;28;20111;-64
2023/03/16 07:39:38;;;;;;;6.80;3.53;;;7.90;64.30;;;;;;5095260;28;20027;-64
2023/03/16 07:42:09;;;;;;;7.53;3.03;;;8.00;64.40;;;;;;5097816;28;20016;-63
2023/03/16 07:44:52;;;;;;;7.55;3.63;;;7.90;64.40;;;;;;5094943;28;20237;-64
2023/03/16 07:47:18;;;;;;;8.27;3.40;;;7.90;64.60;;;;;;5091091;28;20123;-63
2023/03/16 07:49:44;;;;;;;7.70;3.33;;;7.90;64.80;;;;;;5098287;28;20027;-63
2023/03/16 07:52:14;;;;;;;9.93;3.88;;;7.90;65.00;;;;;;5094865;28;20020;-63
2023/03/16 07:54:41;;;;;;;7.35;3.15;;;7.90;65.10;;;;;;5093976;28;20383;-63
2023/03/16 07:57:08;;;;;;;6.88;3.45;;;7.90;65.20;;;;;;5103450;28;20375;-63
2023/03/16 07:59:38;;;;;;;8.00;3.88;;;7.90;65.30;;;;;;5087019;28;20450;-63
2023/03/16 08:02:16;;;;;;;7.75;3.45;;;7.90;65.50;;;;;;5080973;28;20333;-63
2023/03/16 08:04:42;;;;;;;6.80;3.80;;;7.90;65.80;;;;;;5076977;28;20036;-63
2023/03/16 08:07:09;;;;;;;7.38;3.70;;;7.90;65.80;;;;;;5077184;28;20323;-63
2023/03/16 08:09:51;;;;;;;6.40;3.53;;;7.90;65.90;;;;;;5101025;28;20139;-63
2023/03/16 08:12:22;;;;;;;8.23;3.28;;;8.00;66.00;;;;;;5094501;28;20457;-63
2023/03/16 08:14:47;;;;;;;8.55;3.20;;;7.90;65.90;;;;;;5095289;28;20093;-64
2023/03/16 08:17:17;;;;;;;11.38;3.90;;;8.00;66.10;;;;;;5104939;28;20035;-63
2023/03/16 08:19:44;;;;;;;7.00;3.40;;;7.90;66.10;;;;;;5078617;28;20035;-63
2023/03/16 08:22:11;;;;;;;6.93;3.50;;;7.90;66.00;;;;;;5094407;28;20035;-63
2023/03/16 08:24:41;;;;;;;7.15;3.60;;;7.90;66.20;;;;;;5094552;28;20055;-63
2023/03/16 08:27:09;;;;;;;7.97;3.30;;;7.90;66.20;;;;;;5109338;28;20023;-63
2023/03/16 08:29:38;;;;;;;7.32;3.25;;;7.90;66.30;;;;;;5082147;28;20135;-64
2023/03/16 08:32:07;;;;;;;6.68;3.03;;;8.00;66.40;;;;;;5104806;28;20035;-63
2023/03/16 08:34:40;;;;;;;5.85;2.95;;;8.00;66.40;;;;;;5095073;28;20028;-63
2023/03/16 08:37:06;;;;;;;8.45;3.67;;;8.00;66.30;;;;;;5094970;28;20070;-63
2023/03/16 08:39:32;;;;;;;8.63;3.88;;;8.10;66.30;;;;;;5095725;28;20063;-63
2023/03/16 08:42:00;;;;;;;8.63;3.53;;;8.20;66.40;;;;;;5099835;28;20341;-63
2023/03/16 08:44:35;;;;;;;7.35;3.35;;;8.20;66.40;;;;;;5082453;28;20017;-63
2023/03/16 08:47:04;;;;;;;6.88;3.42;;;8.30;66.40;;;;;;5096615;28;20027;-63
2023/03/16 08:49:30;;;;;;;8.27;3.42;;;8.30;66.40;;;;;;5084413;28;20047;-63
2023/03/16 08:52:04;;;;;;;9.15;3.67;;;8.40;66.40;;;;;;5094948;28;20356;-63
2023/03/16 08:54:33;;;;;;;6.90;3.30;;;8.50;66.30;;;;;;5095228;28;20106;-63
2023/03/16 08:56:59;;;;;;;10.40;4.03;;;8.50;66.20;;;;;;5077213;28;20042;-63
2023/03/16 08:59:25;;;;;;;7.70;3.60;;;8.50;66.10;;;;;;5095398;28;20047;-63
2023/03/16 09:01:50;;;;;;;7.65;3.03;;;8.60;66.20;;;;;;5094814;28;20024;-64
2023/03/16 09:04:17;;;;;;;8.13;3.35;;;8.50;66.20;;;;;;5104767;27;20078;-63
2023/03/16 09:06:42;;;;;;;7.43;3.40;;;8.50;66.20;;;;;;5093505;28;20341;-63
2023/03/16 09:09:08;;;;;;;7.28;3.70;;;8.60;66.20;;;;;;5082743;28;20035;-63
2023/03/16 09:11:34;;;;;;;7.38;3.25;;;8.60;66.10;;;;;;5094443;28;20111;-63
2023/03/16 09:14:00;;;;;;;7.68;3.88;;;8.50;66.00;;;;;;5089666;28;20055;-64
2023/03/16 09:16:26;;;;;;;8.43;3.40;;;8.50;66.10;;;;;;5094329;28;20059;-63
2023/03/16 09:18:53;;;;;;;8.15;3.75;;;8.50;66.10;;;;;;5094181;28;20114;-63
2023/03/16 09:21:19;;;;;;;7.82;3.20;;;8.50;66.10;;;;;;5095302;28;20081;-63
2023/03/16 09:23:45;;;;;;;9.68;3.60;;;8.60;66.20;;;;;;5086531;28;20017;-63
2023/03/16 09:26:12;;;;;;;8.63;3.80;;;8.60;66.80;;;;;;5093150;28;20324;-63
2023/03/16 09:28:41;;;;;;;7.95;4.03;;;8.60;66.20;;;;;;5095449;28;20352;-63
2023/03/16 09:31:07;;;;;;;7.68;3.50;;;8.60;66.10;;;;;;5094151;28;20066;-64
2023/03/16 09:33:34;;;;;;;6.88;3.58;;;8.70;66.30;;;;;;5089616;28;20391;-63
2023/03/16 09:36:01;;;;;;;7.65;3.80;;;8.70;66.10;;;;;;5089018;28;20028;-62
2023/03/16 09:38:28;;;;;;;9.95;4.20;;;8.80;66.10;;;;;;5095058;28;20040;-62
2023/03/16 09:41:30;;;;;;;7.63;3.97;;;8.80;66.10;;;;;;5093652;28;20338;-62
2023/03/16 09:44:05;;;;;;;6.97;3.45;;;8.80;66.10;;;;;;5093172;28;20039;-62
2023/03/16 09:46:40;;;;;;;8.02;3.38;;;8.90;66.10;;;;;;5093814;28;20432;-62
2023/03/16 09:49:09;;;;;;;7.20;3.20;;;8.90;66.10;;;;;;5093948;28;20028;-62
2023/03/16 09:51:37;;;;;;;9.65;3.97;;;8.90;66.20;;;;;;5093774;28;20039;-62
2023/03/16 09:54:16;;;;;;;6.30;2.83;;;8.90;66.10;;;;;;5092916;28;20123;-62
2023/03/16 09:56:44;;;;;;;9.57;4.15;;;9.00;66.20;;;;;;5106494;28;20093;-62
2023/03/16 09:59:16;;;;;;;8.38;3.30;;;9.00;66.10;;;;;;5093476;28;20024;-62
2023/03/16 10:02:14;;;;;;;8.93;4.28;;;9.00;66.10;;;;;;5094600;28;20031;-62
2023/03/16 10:04:54;;;;;;;6.10;3.00;;;9.00;66.10;;;;;;5091820;28;20039;-62
2023/03/16 10:08:01;;;;;;;6.28;2.85;;;9.00;66.10;;;;;;5074583;28;20024;-62
2023/03/16 10:10:38;;;;;;;6.82;3.10;;;9.00;66.10;;;;;;5070359;28;20374;-62
2023/03/16 10:13:15;;;;;;;8.18;3.28;;;9.10;66.20;;;;;;5099387;28;20040;-62
2023/03/16 10:15:41;;;;;;;7.70;3.42;;;9.10;66.10;;;;;;5087766;28;20036;-62
2023/03/16 10:18:28;;;;;;;7.50;3.22;;;9.10;65.90;;;;;;5094679;28;20139;-62
2023/03/16 10:20:54;;;;;;;9.77;2.90;;;9.20;65.80;;;;;;5094693;28;20035;-62
2023/03/16 10:23:23;;;;;;;7.53;2.85;;;9.20;65.70;;;;;;5093552;28;20097;-62
2023/03/16 10:25:55;;;;;;;7.45;3.38;;;9.30;65.70;;;;;;5092146;28;20014;-62
2023/03/16 10:28:25;;;;;;;7.78;3.25;;;9.30;65.70;;;;;;5094714;28;20422;-62
2023/03/16 10:30:53;;;;;;;7.85;3.33;;;9.40;65.60;;;;;;5093388;28;20032;-62
2023/03/16 10:33:25;;;;;;;7.60;2.85;;;9.50;65.30;;;;;;5093245;28;20085;-61
2023/03/16 10:35:57;;;;;;;6.55;3.08;;;9.60;65.10;;;;;;5091608;28;20043;-62
2023/03/16 10:38:37;;;;;;;;;;;9.70;64.90;;;;;;5094255;28;20032;-62
2023/03/16 10:41:25;;;;;;;6.70;3.05;;;9.80;64.70;;;;;;5094212;28;19922;-62
2023/03/16 10:43:56;;;;;;;7.18;3.05;;;10.00;64.40;;;;;;5092581;28;20060;-62
2023/03/16 10:46:25;;;;;;;7.15;2.92;;;10.20;64.20;;;;;;5093348;28;20032;-62
2023/03/16 10:48:59;;;;;;;6.95;3.10;;;10.30;63.90;;;;;;5092924;28;20050;-62
2023/03/16 10:51:32;;;;;;;8.30;3.08;;;10.40;63.70;;;;;;5094259;28;20032;-62
2023/03/16 10:54:09;;;;;;;7.55;3.03;;;10.50;63.50;;;;;;5094379;28;20047;-62
2023/03/16 10:56:36;;;;;;;5.75;2.83;;;10.50;63.30;;;;;;5093017;28;20035;-63
2023/03/16 10:59:14;;;;;;;6.70;3.10;;;10.50;63.10;;;;;;5093850;28;20181;-62
2023/03/16 11:01:44;;;;;;;7.30;2.92;;;10.60;63.10;;;;;;5092721;28;20420;-62
2023/03/16 11:04:15;;;;;;;5.72;2.70;;;10.80;62.90;;;;;;5093974;28;20043;-62
2023/03/16 11:06:51;;;;;;;8.05;3.20;;;11.00;62.50;;;;;;5092428;28;20016;-62
2023/03/16 11:09:32;;;;;;;7.20;2.92;;;11.30;61.90;;;;;;5077558;28;20107;-62
2023/03/16 11:12:00;;;;;;;6.78;3.30;;;11.50;61.30;;;;;;5091925;28;20060;-62
2023/03/16 11:14:27;;;;;;;6.65;2.95;;;11.70;61.00;;;;;;5097421;28;20056;-62
2023/03/16 11:17:22;;;;;;;6.97;2.55;;;11.70;60.80;;;;;;5096854;28;20044;-62
2023/03/16 11:19:59;;;;;;;6.80;3.17;;;11.70;60.60;;;;;;5078900;28;20044;-63
2023/03/16 11:22:26;;;;;;;6.88;2.85;;;11.70;60.60;;;;;;5097546;28;20028;-63
2023/03/16 11:25:01;;;;;;;6.93;3.17;;;11.70;60.70;;;;;;5096319;28;20314;-63
2023/03/16 11:27:59;;;;;;;6.78;2.75;;;11.70;60.30;;;;;;5096675;28;20044;-63
2023/03/16 11:31:07;;;;;;;7.03;2.75;;;11.80;60.20;;;;;;5094660;28;20073;-63
2023/03/16 11:33:33;;;;;;;6.30;2.90;;;11.80;60.10;;;;;;5097396;28;20035;-62
2023/03/16 11:36:26;;;;;;;7.22;3.20;;;11.80;60.00;;;;;;5096351;28;20421;-62
2023/03/16 11:39:04;;;;;;;9.50;3.50;;;11.80;59.80;;;;;;5087931;28;20131;-62
2023/03/16 11:41:30;;;;;;;6.75;3.33;;;11.70;59.80;;;;;;5095671;28;20058;-62
2023/03/16 11:44:00;;;;;;;7.38;3.40;;;11.70;59.70;;;;;;5097128;28;20028;-63
2023/03/16 11:46:56;;;;;;;9.00;3.92;;;11.60;59.60;;;;;;5098963;28;20019;-62
2023/03/16 11:49:41;;;;;;;8.65;4.32;;;11.60;59.70;;;;;;5096246;28;20040;-63
2023/03/16 11:52:07;;;;;;;7.95;3.95;;;11.60;59.60;;;;;;5099002;28;20028;-62
2023/03/16 11:55:11;;;;;;;11.77;3.85;;;11.60;59.60;;;;;;5095005;28;20035;-62
2023/03/16 11:57:55;;;;;;;8.55;3.70;;;11.60;59.40;;;;;;5085410;28;20344;-62
2023/03/16 12:01:07;;;;;;;8.45;3.58;;;11.60;59.30;;;;;;5098688;28;20033;-62
2023/03/16 12:04:00;;;;;;;6.78;3.42;;;11.60;59.20;;;;;;5101964;28;20034;-63
2023/03/16 12:07:02;;;;;;;7.43;3.28;;;11.60;59.20;;;;;;5098765;28;20046;-63
2023/03/16 12:09:46;;;;;;;8.07;3.35;;;11.70;59.20;;;;;;5098284;28;20036;-61
2023/03/16 12:12:24;;;;;;;6.10;2.75;;;11.70;59.20;;;;;;5099786;28;20024;-62
2023/03/16 12:15:02;;;;;;;7.43;2.97;;;11.80;59.30;;;;;;5096236;28;21515;-62
2023/03/16 12:17:36;;;;;;;7.60;3.00;;;11.80;59.00;;;;;;5099265;28;20046;-62
2023/03/16 12:20:28;;;;;;;7.03;2.85;;;11.80;59.00;;;;;;5096449;28;20024;-62
2023/03/16 12:23:04;;;;;;;7.55;2.78;;;11.90;59.10;;;;;;5100323;28;20099;-62
2023/03/16 12:25:35;;;;;;;6.15;2.75;;;12.00;58.90;;;;;;5085516;28;20590;-62
2023/03/16 12:28:06;;;;;;;5.10;2.55;;;12.00;58.70;;;;;;5098231;28;20490;-63
2023/03/16 12:30:58;;;;;;;9.48;3.20;;;12.00;58.50;;;;;;5093864;28;20097;-63
2023/03/16 12:33:55;;;;;;;7.13;2.88;;;12.10;58.90;;;;;;5102033;28;20101;-63
2023/03/16 12:36:59;;;;;;;8.30;2.70;;;12.00;58.00;;;;;;5097972;28;20019;-63
2023/03/16 12:39:39;;;;;;;7.25;2.65;;;12.10;57.90;;;;;;5082944;28;20375;-62
2023/03/16 12:42:33;;;;;;;5.97;2.45;;;12.20;57.70;;;;;;5086268;28;20112;-62
2023/03/16 12:45:06;;;;;;;7.38;3.10;;;12.40;57.30;;;;;;5070836;28;20024;-62
2023/03/16 12:47:41;;;;;;;8.10;3.30;;;12.40;56.90;;;;;;5081872;28;20035;-62
2023/03/16 12:50:14;;;;;;;8.27;3.40;;;12.50;56.80;;;;;;5080080;28;20036;-62
2023/03/16 12:52:45;;;;;;;6.55;3.08;;;12.60;56.70;;;;;;5091448;28;20411;-62
2023/03/16 12:55:16;;;;;;;;;;;12.70;56.40;;;;;;5074195;28;20036;-62
2023/03/16 12:57:44;;;;;;;8.43;2.97;;;12.70;56.50;;;;;;5077378;28;20226;-63
2023/03/16 13:00:13;;;;;;;8.23;3.20;;;12.70;56.30;;;;;;5079791;28;20409;-62
2023/03/16 13:02:44;;;;;;;6.13;2.63;;;12.80;56.10;;;;;;5078774;28;20104;-62
2023/03/16 13:05:11;;;;;;;;;;;12.80;56.00;;;;;;5097631;28;20036;-62
2023/03/16 13:08:02;;;;;;;7.85;3.30;;;12.80;56.20;;;;;;5098847;28;19908;-62
2023/03/16 13:10:28;;;;;;;6.32;2.55;;;12.80;56.10;;;;;;5095697;28;20046;-63
2023/03/16 13:12:54;;;;;;;6.32;2.40;;;12.80;56.10;;;;;;5093617;28;20115;-62
2023/03/16 13:15:21;;;;;;;6.20;2.88;;;12.80;56.10;;;;;;5093970;28;20457;-62
2023/03/16 13:17:49;;;;;;;6.25;2.80;;;12.80;56.00;;;;;;5094422;28;20035;-62